Time;durP1;ratioP1;P1;durP2;ratioP2;P2;SDS_P1;SDS_P2;PMS_P1;PMS_P2;Temp;Humidity;BMP_temperature;BMP_pressure;BME280_temperature;BME280_humidity;BME280_pressure;Samples;Min_cycle;Max_cycle;Signal;HPM_P1;HPM_P2
2023/02/05 00:00:49;;;;;;;3.90;2.90;;;;;;;-4.07;97.44;100270.23;105428;1259;74731;-74
2023/02/05 00:03:17;;;;;;;3.80;3.50;;;;;;;-4.08;97.62;100271.54;105672;1262;67499;-74
2023/02/05 00:05:46;;;;;;;3.10;2.90;;;;;;;-4.08;97.35;100270.88;105687;1257;72342;-73
2023/02/05 00:08:15;;;;;;;5.00;3.90;;;;;;;-4.08;97.72;100272.79;105690;1257;61295;-75
2023/02/05 00:10:43;;;;;;;4.00;3.60;;;;;;;-4.05;97.73;100272.69;105733;1257;61282;-73
2023/02/05 00:13:12;;;;;;;3.50;3.10;;;;;;;-4.00;97.90;100277.06;105705;1262;74603;-75
2023/02/05 00:15:41;;;;;;;4.50;3.30;;;;;;;-3.95;97.96;100280.98;105817;1257;69370;-74
2023/02/05 00:18:09;;;;;;;4.20;3.80;;;;;;;-3.91;97.93;100279.59;105879;1257;73118;-75
2023/02/05 00:20:38;;;;;;;3.70;3.30;;;;;;;-3.89;97.99;100282.60;105746;1260;60679;-73
2023/02/05 00:23:06;;;;;;;4.30;3.90;;;;;;;-3.90;97.59;100280.89;105663;1261;60475;-74
2023/02/05 00:25:35;;;;;;;3.80;3.40;;;;;;;-3.93;97.68;100276.40;105593;1258;73542;-75
2023/02/05 00:28:03;;;;;;;3.70;3.30;;;;;;;-3.94;97.80;100272.70;105780;1257;69872;-75
2023/02/05 00:30:31;;;;;;;3.90;3.50;;;;;;;-3.94;97.93;100272.71;105731;1257;72885;-74
2023/02/05 00:33:00;;;;;;;3.70;3.40;;;;;;;-3.93;97.91;100272.46;105829;1260;60694;-77
2023/02/05 00:35:28;;;;;;;3.80;3.30;;;;;;;-3.92;98.20;100272.50;105836;1257;61239;-74
2023/02/05 00:37:56;;;;;;;4.40;3.80;;;;;;;-3.88;98.23;100269.34;105743;1262;74080;-74
2023/02/05 00:40:25;;;;;;;3.60;3.30;;;;;;;-3.86;98.26;100274.18;105449;1257;68653;-75
2023/02/05 00:42:55;;;;;;;3.30;3.00;;;;;;;-3.85;98.01;100267.46;105364;1257;71041;-74
2023/02/05 00:45:23;;;;;;;3.70;3.40;;;;;;;-3.86;98.15;100281.70;105382;1256;62065;-74
2023/02/05 00:47:51;;;;;;;3.60;3.30;;;;;;;-3.87;98.25;100280.81;105688;1257;60371;-73
2023/02/05 00:50:20;;;;;;;3.70;2.90;;;;;;;-3.89;98.33;100281.33;105766;1260;74699;-72
2023/02/05 00:52:49;;;;;;;3.70;3.30;;;;;;;-3.89;98.45;100277.82;105454;1257;66903;-72
2023/02/05 00:55:17;;;;;;;4.00;3.70;;;;;;;-3.88;98.73;100278.09;105587;1257;72606;-75
2023/02/05 00:57:45;;;;;;;3.70;3.40;;;;;;;-3.86;98.84;100279.08;105774;1257;62049;-71
2023/02/05 01:00:14;;;;;;;3.50;3.20;;;;;;;-3.84;98.91;100280.05;105728;1256;60565;-74
2023/02/05 01:02:43;;;;;;;3.40;3.10;;;;;;;-3.84;98.87;100280.65;105736;1257;75248;-74
2023/02/05 01:05:11;;;;;;;6.30;3.90;;;;;;;-3.83;99.03;100276.89;105728;1257;68458;-74
2023/02/05 01:07:43;;;;;;;3.70;3.40;;;;;;;-3.83;99.19;100279.89;105646;1258;72094;-73
2023/02/05 01:10:11;;;;;;;4.00;3.70;;;;;;;-3.83;99.15;100276.93;105654;1257;61499;-75
2023/02/05 01:12:39;;;;;;;3.10;2.90;;;;;;;-3.83;99.30;100281.27;105656;1256;60909;-74
2023/02/05 01:15:08;;;;;;;3.80;3.40;;;;;;;-3.82;99.36;100280.44;105723;1260;74633;-74
2023/02/05 01:17:37;;;;;;;4.00;3.70;;;;;;;-3.79;99.41;100273.48;105774;1259;69031;-73
2023/02/05 01:20:06;;;;;;;4.70;4.30;;;;;;;-3.75;99.61;100275.58;105764;1257;71587;-75
2023/02/05 01:22:34;;;;;;;4.20;3.80;;;;;;;-3.71;99.58;100277.20;105714;1260;60378;-74
2023/02/05 01:25:03;;;;;;;4.30;3.90;;;;;;;-3.70;99.51;100275.61;105580;1257;60495;-75
2023/02/05 01:27:32;;;;;;;3.80;2.80;;;;;;;-3.70;99.43;100271.40;105746;1260;73961;-74
2023/02/05 01:30:00;;;;;;;4.40;4.00;;;;;;;-3.70;99.29;100274.64;105212;1256;68734;-72
2023/02/05 01:32:29;;;;;;;3.90;3.60;;;;;;;-3.72;99.49;100270.58;105777;1259;72667;-75
2023/02/05 01:34:57;;;;;;;3.60;3.30;;;;;;;-3.72;99.59;100275.48;105784;1257;62824;-74
2023/02/05 01:37:25;;;;;;;5.50;3.70;;;;;;;-3.72;99.66;100279.00;105510;1260;60751;-74
2023/02/05 01:39:54;;;;;;;4.00;3.60;;;;;;;-3.72;99.73;100277.56;105499;1257;73360;-78
2023/02/05 01:42:25;;;;;;;3.60;3.30;;;;;;;-3.70;99.87;100280.54;105578;1257;67271;-76
2023/02/05 01:45:21;;;;;;;4.10;3.80;;;;;;;-3.68;99.97;100277.38;105718;1260;72827;-78
2023/02/05 01:47:51;;;;;;;3.30;3.00;;;;;;;-3.67;99.93;100278.34;105740;1259;60450;-79
2023/02/05 01:50:23;;;;;;;4.50;4.00;;;;;;;-3.67;99.86;100283.45;105721;1256;61082;-77
2023/02/05 01:52:51;;;;;;;4.50;4.10;;;;;;;-3.69;99.76;100281.98;105764;1262;75695;-77
2023/02/05 01:55:19;;;;;;;3.80;3.30;;;;;;;-3.69;99.86;100281.14;105650;1262;67077;-77
2023/02/05 01:57:48;;;;;;;4.20;3.80;;;;;;;-3.68;99.94;100282.63;105724;1262;74454;-77
2023/02/05 02:00:16;;;;;;;4.50;4.10;;;;;;;-3.65;99.99;100283.44;105609;1259;63540;-77
2023/02/05 02:02:44;;;;;;;5.40;3.80;;;;;;;-3.61;100.00;100288.95;105681;1262;60457;-79
2023/02/05 02:05:14;;;;;;;3.40;2.90;;;;;;;-3.57;99.99;100284.20;105791;1256;75700;-76
2023/02/05 02:07:43;;;;;;;6.70;6.00;;;;;;;-3.56;99.99;100285.92;109020;1256;69240;-77
2023/02/05 02:10:12;;;;;;;3.60;3.10;;;;;;;-3.56;99.99;100284.97;108971;1257;71788;-75
2023/02/05 02:12:42;;;;;;;4.70;4.20;;;;;;;-3.56;100.00;100288.38;108929;1256;61160;-75
2023/02/05 02:15:14;;;;;;;3.20;3.00;;;;;;;-3.57;100.00;100285.98;108912;1257;59425;-76
2023/02/05 02:17:44;;;;;;;3.80;3.50;;;;;;;-3.56;99.98;100288.21;108906;1256;74719;-75
2023/02/05 02:20:18;;;;;;;4.60;3.60;;;;;;;-3.53;100.00;100286.33;108924;1256;67712;-75
2023/02/05 02:23:08;;;;;;;4.40;3.40;;;;;;;-3.49;100.00;100288.89;108882;1256;73931;-75
2023/02/05 02:25:44;;;;;;;3.60;3.30;;;;;;;-3.45;100.00;100285.88;109091;1256;58558;-76
2023/02/05 02:28:37;;;;;;;3.90;3.60;;;;;;;-3.44;99.92;100285.10;109116;1256;59560;-75
2023/02/05 02:31:16;;;;;;;3.70;3.40;;;;;;;-3.43;100.00;100280.29;108932;1256;72795;-76
2023/02/05 02:33:56;;;;;;;3.80;3.50;;;;;;;-3.42;100.00;100277.74;108981;1257;65710;-76
2023/02/05 02:36:36;;;;;;;4.80;4.40;;;;;;;-3.42;99.97;100274.89;108954;1256;71853;-75
2023/02/05 02:39:20;;;;;;;4.80;4.20;;;;;;;-3.39;100.00;100277.61;108943;1258;60836;-75
2023/02/05 02:42:01;;;;;;;4.30;3.90;;;;;;;-3.33;100.00;100276.36;108981;1259;59766;-74
2023/02/05 02:44:39;;;;;;;4.00;3.60;;;;;;;-3.27;99.99;100284.66;109059;1258;73448;-76
2023/02/05 02:47:19;;;;;;;4.10;3.70;;;;;;;-3.21;99.86;100287.06;108943;1259;69239;-78
2023/02/05 02:50:12;;;;;;;5.50;3.80;;;;;;;-3.17;99.87;100284.21;108944;1259;72853;-79
2023/02/05 02:52:41;;;;;;;3.60;3.30;;;;;;;-3.17;99.51;100288.30;108945;1258;58618;-79
2023/02/05 02:55:10;;;;;;;5.70;4.00;;;;;;;-3.19;99.15;100288.33;109018;1258;59369;-79
2023/02/05 02:57:42;;;;;;;4.40;3.80;;;;;;;-3.19;99.46;100293.86;108966;1258;72348;-78
2023/02/05 03:00:28;;;;;;;4.50;3.70;;;;;;;-3.18;99.32;100291.88;108989;1258;67037;-78
2023/02/05 03:03:00;;;;;;;4.20;3.10;;;;;;;-3.17;99.11;100295.64;108966;1258;71037;-77
2023/02/05 03:05:28;;;;;;;3.40;3.10;;;;;;;-3.14;99.36;100300.27;108940;1258;59234;-77
2023/02/05 03:08:01;;;;;;;4.40;4.00;;;;;;;-3.13;99.42;100304.50;108960;1258;59534;-78
2023/02/05 03:10:45;;;;;;;3.90;3.40;;;;;;;-3.16;98.97;100303.37;108936;1259;73884;-78
2023/02/05 03:13:18;;;;;;;4.10;3.70;;;;;;;-3.19;98.87;100301.42;108970;1260;68545;-78
2023/02/05 03:15:52;;;;;;;4.80;4.30;;;;;;;-3.21;98.95;100303.16;108961;1258;72189;-78
2023/02/05 03:18:23;;;;;;;5.80;4.50;;;;;;;-3.20;98.92;100304.89;109066;1258;60731;-76
2023/02/05 03:20:54;;;;;;;3.90;3.60;;;;;;;-3.18;98.99;100307.10;108992;1258;60143;-78
2023/02/05 03:23:23;;;;;;;4.40;4.00;;;;;;;-3.12;98.88;100309.49;108935;1258;73389;-77
2023/02/05 03:25:52;;;;;;;3.70;3.40;;;;;;;-3.04;99.18;100309.98;109111;1258;68678;-77
2023/02/05 03:28:23;;;;;;;4.70;4.00;;;;;;;-2.99;98.73;100305.72;108972;1258;73872;-79
2023/02/05 03:31:16;;;;;;;5.80;4.60;;;;;;;-3.01;98.41;100309.18;108904;1258;58845;-78
2023/02/05 03:33:48;;;;;;;;;;;;;;;-3.06;98.36;100312.45;108209;1258;1002426;-78
2023/02/05 03:36:24;;;;;;;5.30;4.80;;;;;;;-3.07;98.37;100311.98;109005;1259;74847;-78
2023/02/05 03:39:07;;;;;;;4.60;3.50;;;;;;;-3.03;98.67;100310.61;109045;1258;66908;-78
2023/02/05 03:41:55;;;;;;;4.10;3.80;;;;;;;-2.99;98.54;100308.80;109041;1258;72642;-78
2023/02/05 03:44:58;;;;;;;4.30;3.90;;;;;;;-2.95;98.20;100308.81;109007;1258;60446;-76
2023/02/05 03:47:59;;;;;;;4.30;3.90;;;;;;;-2.95;97.97;100312.41;109046;1258;60291;-75
2023/02/05 03:50:28;;;;;;;4.20;3.40;;;;;;;-2.97;97.78;100315.11;108993;1259;75545;-75
2023/02/05 03:53:05;;;;;;;4.40;4.10;;;;;;;-2.98;98.00;100308.58;109003;1258;66838;-75
2023/02/05 03:55:38;;;;;;;4.70;4.30;;;;;;;-3.01;97.86;100308.66;108959;1260;73599;-75
2023/02/05 03:58:34;;;;;;;3.70;3.40;;;;;;;-3.04;97.72;100312.63;108940;1258;59926;-75
2023/02/05 04:01:03;;;;;;;7.90;5.70;;;;;;;-3.05;98.27;100313.58;109049;1258;60363;-76
2023/02/05 04:03:32;;;;;;;3.90;3.40;;;;;;;-3.02;97.90;100315.25;109010;1258;71934;-75
2023/02/05 04:06:00;;;;;;;5.10;4.60;;;;;;;-3.08;97.82;100308.80;108929;1259;69045;-76
2023/02/05 04:08:29;;;;;;;5.20;4.30;;;;;;;-3.08;98.07;100312.89;108934;1259;72814;-79
2023/02/05 04:10:57;;;;;;;4.10;3.80;;;;;;;-3.10;97.82;100313.52;108934;1259;62334;-79
2023/02/05 04:13:27;;;;;;;4.50;4.10;;;;;;;-3.11;98.11;100318.70;108991;1258;60016;-75
2023/02/05 04:15:55;;;;;;;3.90;3.60;;;;;;;-3.09;98.08;100322.95;109077;1258;73144;-78
2023/02/05 04:18:23;;;;;;;6.90;5.50;;;;;;;-3.06;98.28;100325.84;109001;1259;67612;-77
2023/02/05 04:20:54;;;;;;;7.30;4.40;;;;;;;-3.03;98.32;100326.06;109010;1258;70173;-76
2023/02/05 04:23:24;;;;;;;4.70;3.70;;;;;;;-3.05;97.94;100322.92;109054;1259;58129;-76
2023/02/05 04:25:53;;;;;;;4.40;4.00;;;;;;;-3.06;98.02;100322.09;108961;1258;58084;-74
2023/02/05 04:28:26;;;;;;;4.80;3.90;;;;;;;-3.03;98.46;100324.33;108997;1258;73048;-75
2023/02/05 04:30:54;;;;;;;4.30;3.70;;;;;;;-3.01;98.19;100324.99;109033;1258;67379;-76
2023/02/05 04:33:23;;;;;;;5.50;5.10;;;;;;;-3.04;97.98;100326.45;109074;1258;71677;-77
2023/02/05 04:35:57;;;;;;;6.00;4.30;;;;;;;-3.06;98.19;100325.44;108992;1258;60300;-74
2023/02/05 04:38:25;;;;;;;;;;;;;;;-3.04;98.06;100326.71;109041;1259;59018;-74
2023/02/05 04:40:54;;;;;;;6.30;4.00;;;;;;;-3.01;98.26;100323.75;109001;1259;75242;-75
2023/02/05 04:43:22;;;;;;;6.60;4.90;;;;;;;-2.99;97.85;100326.88;109082;1259;68964;-74
2023/02/05 04:45:51;;;;;;;5.40;4.50;;;;;;;-2.99;98.54;100324.41;109038;1259;70499;-75
2023/02/05 04:48:20;;;;;;;5.70;5.20;;;;;;;-2.97;98.02;100324.36;108227;1259;1002829;-71
2023/02/05 04:50:48;;;;;;;6.10;4.70;;;;;;;-2.98;98.20;100326.46;109060;1259;59232;-73
2023/02/05 04:53:16;;;;;;;6.60;4.80;;;;;;;-3.00;98.12;100329.29;109072;1259;72422;-74
2023/02/05 04:55:46;;;;;;;6.00;5.20;;;;;;;-3.01;98.15;100335.48;109046;1259;66391;-78
2023/02/05 04:58:15;;;;;;;4.20;3.40;;;;;;;-3.00;98.09;100334.58;109027;1259;73670;-76
2023/02/05 05:00:45;;;;;;;5.50;5.00;;;;;;;-2.99;97.90;100337.55;109044;1259;62328;-77
2023/02/05 05:03:14;;;;;;;5.50;4.90;;;;;;;-2.98;98.23;100338.73;108944;1261;60029;-74
2023/02/05 05:05:42;;;;;;;7.70;5.00;;;;;;;-2.95;98.47;100341.22;108995;1262;74329;-75
2023/02/05 05:08:10;;;;;;;7.20;5.70;;;;;;;-2.92;98.39;100346.40;109075;1259;66395;-75
2023/02/05 05:10:38;;;;;;;6.30;5.70;;;;;;;-2.93;98.09;100344.58;108237;1258;1002934;-75
2023/02/05 05:13:07;;;;;;;5.70;4.70;;;;;;;-2.96;97.89;100350.76;108965;1259;60398;-74
2023/02/05 05:15:35;;;;;;;7.10;6.40;;;;;;;-2.96;98.10;100345.90;109047;1259;59743;-74
2023/02/05 05:18:05;;;;;;;6.00;5.50;;;;;;;-2.94;98.38;100345.52;109045;1258;73290;-73
2023/02/05 05:20:34;;;;;;;8.30;5.90;;;;;;;-2.90;98.25;100351.80;109063;1259;68402;-75
2023/02/05 05:23:02;;;;;;;6.60;5.90;;;;;;;-2.88;98.38;100346.65;109055;1259;71185;-74
2023/02/05 05:25:31;;;;;;;8.70;7.60;;;;;;;-2.88;98.20;100349.15;108942;1259;59089;-72
2023/02/05 05:27:59;;;;;;;6.80;6.10;;;;;;;-2.88;98.03;100350.69;109018;1259;59146;-73
2023/02/05 05:30:28;;;;;;;7.10;6.40;;;;;;;-2.88;98.07;100355.48;109024;1259;72733;-74
2023/02/05 05:32:57;;;;;;;6.20;5.10;;;;;;;-2.91;98.02;100354.33;109043;1259;68808;-73
2023/02/05 05:35:25;;;;;;;6.80;5.90;;;;;;;-2.90;98.19;100357.57;109061;1259;70418;-74
2023/02/05 05:37:55;;;;;;;7.50;6.50;;;;;;;-2.85;97.97;100358.73;108965;1259;59166;-76
2023/02/05 05:45:57;;;;;;;6.20;5.10;;;;;;;-2.75;98.14;100372.95;108903;1259;67921;-77
2023/02/05 05:48:26;;;;;;;6.00;4.90;;;;;;;-2.72;98.09;100373.50;108947;1259;73077;-75
2023/02/05 05:50:54;;;;;;;6.60;4.90;;;;;;;-2.70;97.81;100374.91;108882;1259;59498;-70
2023/02/05 05:53:23;;;;;;;10.20;6.10;;;;;;;-2.75;97.86;100372.61;108926;1259;59087;-69
2023/02/05 05:55:51;;;;;;;9.00;6.20;;;;;;;-2.80;97.55;100377.13;109040;1259;71568;-70
2023/02/05 05:58:19;;;;;;;9.00;6.60;;;;;;;-2.82;98.16;100383.77;109003;1259;65697;-70
2023/02/05 06:00:47;;;;;;;11.10;7.90;;;;;;;-2.84;98.26;100390.34;109007;1259;70654;-73
2023/02/05 06:03:16;;;;;;;9.80;6.20;;;;;;;-2.85;98.33;100391.97;108986;1259;60656;-71
2023/02/05 06:05:44;;;;;;;12.30;7.40;;;;;;;-2.80;98.73;100389.43;109031;1259;59241;-72
2023/02/05 06:08:15;;;;;;;9.70;7.10;;;;;;;-2.75;98.45;100386.16;109056;1259;73327;-72
2023/02/05 06:10:43;;;;;;;7.10;5.40;;;;;;;-2.70;98.50;100391.09;109055;1259;66863;-75
2023/02/05 06:13:12;;;;;;;10.30;7.90;;;;;;;-2.70;98.31;100389.84;108898;1259;72924;-71
2023/02/05 06:15:40;;;;;;;12.80;8.50;;;;;;;-2.71;98.28;100393.61;109006;1259;58788;-72
2023/02/05 06:18:10;;;;;;;12.60;7.50;;;;;;;-2.69;98.51;100400.75;108995;1259;59470;-71
2023/02/05 06:20:38;;;;;;;11.00;6.80;;;;;;;-2.67;98.20;100402.64;109008;1259;71512;-70
2023/02/05 06:23:07;;;;;;;14.00;8.60;;;;;;;-2.61;98.27;100404.80;109022;1259;68180;-69
2023/02/05 06:25:35;;;;;;;9.50;7.90;;;;;;;-2.54;98.67;100404.63;109030;1259;72728;-71
2023/02/05 06:28:03;;;;;;;8.30;7.50;;;;;;;-2.51;98.17;100406.23;108991;1259;58418;-72
2023/02/05 06:30:32;;;;;;;6.90;5.90;;;;;;;-2.54;97.69;100403.77;108989;1259;60029;-73
2023/02/05 06:33:01;;;;;;;7.90;6.40;;;;;;;-2.55;97.88;100407.38;108958;1259;75068;-76
2023/02/05 06:35:29;;;;;;;8.40;6.60;;;;;;;-2.55;98.16;100408.08;108991;1259;69129;-71
2023/02/05 06:37:58;;;;;;;6.90;5.90;;;;;;;-2.57;97.95;100413.02;108937;1259;70591;-71
2023/02/05 06:40:27;;;;;;;6.70;6.10;;;;;;;-2.57;98.14;100416.31;108988;1259;61240;-71
2023/02/05 06:42:55;;;;;;;6.20;5.70;;;;;;;-2.55;98.26;100420.85;108995;1259;61243;-68
2023/02/05 06:45:23;;;;;;;7.10;5.50;;;;;;;-2.50;98.38;100420.41;108994;1259;71621;-70
2023/02/05 06:47:54;;;;;;;6.20;5.60;;;;;;;-2.45;98.25;100422.59;108930;1259;68553;-69
2023/02/05 06:50:23;;;;;;;6.50;5.80;;;;;;;-2.45;98.43;100424.86;108966;1259;73835;-68
2023/02/05 06:52:51;;;;;;;6.90;5.90;;;;;;;-2.47;98.05;100421.46;108975;1259;59919;-70
2023/02/05 06:55:19;;;;;;;7.20;6.10;;;;;;;-2.46;98.15;100425.63;108990;1259;60956;-74
2023/02/05 06:57:48;;;;;;;7.30;5.70;;;;;;;-2.46;98.33;100426.81;109001;1259;72629;-72
2023/02/05 07:00:16;;;;;;;5.90;5.30;;;;;;;-2.44;98.28;100427.14;108990;1259;68265;-72
2023/02/05 07:02:45;;;;;;;9.00;7.40;;;;;;;-2.42;98.42;100430.33;108946;1259;72704;-73
2023/02/05 07:05:13;;;;;;;6.90;6.10;;;;;;;-2.44;98.26;100428.73;108988;1259;58253;-73
2023/02/05 07:07:41;;;;;;;6.80;5.60;;;;;;;-2.39;98.49;100426.02;108936;1259;60320;-73
2023/02/05 07:10:09;;;;;;;8.30;6.00;;;;;;;-2.38;98.24;100426.60;109004;1259;74291;-71
2023/02/05 07:12:38;;;;;;;8.80;5.80;;;;;;;-2.40;98.32;100430.13;108996;1259;67208;-73
2023/02/05 07:15:06;;;;;;;7.00;6.30;;;;;;;-2.39;98.56;100434.57;109000;1259;72927;-76
2023/02/05 07:17:35;;;;;;;6.40;5.80;;;;;;;-2.36;98.71;100436.19;108951;1259;61959;-71
2023/02/05 07:20:04;;;;;;;6.40;5.70;;;;;;;-2.32;98.98;100441.80;109016;1259;60601;-71
2023/02/05 07:22:32;;;;;;;6.80;6.00;;;;;;;-2.30;98.70;100442.88;109022;1259;73241;-73
2023/02/05 07:25:02;;;;;;;6.90;6.20;;;;;;;-2.24;99.17;100443.57;108984;1259;68672;-71
2023/02/05 07:27:31;;;;;;;6.70;5.60;;;;;;;-2.17;98.72;100450.48;108867;1259;70748;-72
2023/02/05 07:30:01;;;;;;;11.20;6.90;;;;;;;-2.14;98.80;100452.66;108912;1259;59115;-75
2023/02/05 07:32:30;;;;;;;7.00;6.30;;;;;;;-2.21;98.28;100454.04;108991;1259;59767;-73
2023/02/05 07:34:59;;;;;;;7.40;6.40;;;;;;;-2.23;98.80;100459.68;108982;1259;73558;-70
2023/02/05 07:37:27;;;;;;;9.00;7.00;;;;;;;-2.24;98.94;100452.78;108950;1260;66982;-73
2023/02/05 07:39:56;;;;;;;8.90;7.50;;;;;;;-2.25;99.08;100453.49;108896;1262;71765;-73
2023/02/05 07:42:24;;;;;;;5.30;4.80;;;;;;;-2.22;99.10;100453.98;108941;1261;58901;-73
2023/02/05 07:44:55;;;;;;;10.80;8.10;;;;;;;-2.17;99.37;100456.84;108975;1261;61579;-71
2023/02/05 07:47:24;;;;;;;11.50;8.50;;;;;;;-2.19;99.47;100454.41;108980;1262;75185;-72
2023/02/05 07:49:53;;;;;;;8.90;6.50;;;;;;;-2.19;99.89;100455.30;108961;1262;67968;-69
2023/02/05 07:52:23;;;;;;;9.70;7.70;;;;;;;-2.16;100.00;100455.92;108917;1260;72278;-73
2023/02/05 07:54:53;;;;;;;13.40;7.80;;;;;;;-2.14;100.00;100450.05;108938;1260;62571;-77
2023/02/05 07:57:24;;;;;;;8.10;7.10;;;;;;;-2.14;100.00;100455.13;108942;1260;61605;-76
2023/02/05 07:59:56;;;;;;;7.70;6.80;;;;;;;-2.13;99.99;100462.45;108976;1260;72880;-73
2023/02/05 08:02:26;;;;;;;8.70;7.60;;;;;;;-2.10;100.00;100466.89;108417;1260;737715;-73
2023/02/05 08:04:55;;;;;;;8.50;7.70;;;;;;;-2.07;100.00;100468.84;108942;1260;73810;-79
2023/02/05 08:07:25;;;;;;;9.20;6.40;;;;;;;-2.01;100.00;100469.69;108936;1260;58427;-73
2023/02/05 08:09:55;;;;;;;7.20;6.50;;;;;;;-1.99;100.00;100475.77;108961;1265;58424;-75
2023/02/05 08:12:24;;;;;;;9.70;6.90;;;;;;;-1.98;99.95;100471.66;108909;1260;73585;-75
2023/02/05 08:14:53;;;;;;;8.30;6.50;;;;;;;-2.00;99.84;100478.30;108905;1260;65787;-76
2023/02/05 08:17:25;;;;;;;7.70;6.90;;;;;;;-1.98;99.93;100478.82;108957;1260;72528;-75
2023/02/05 08:19:54;;;;;;;8.90;7.90;;;;;;;-1.96;99.94;100483.20;108836;1260;59623;-73
2023/02/05 08:22:25;;;;;;;6.60;5.70;;;;;;;-1.92;99.93;100488.98;108960;1260;61067;-72
2023/02/05 08:24:53;;;;;;;6.70;6.00;;;;;;;-1.89;99.85;100485.19;108972;1262;74023;-73
2023/02/05 08:27:21;;;;;;;10.40;6.70;;;;;;;-1.86;99.84;100492.57;108967;1260;67967;-76
2023/02/05 08:29:50;;;;;;;13.70;7.60;;;;;;;-1.82;99.61;100488.73;108903;1260;71142;-78
2023/02/05 08:32:18;;;;;;;11.70;8.20;;;;;;;-1.77;99.97;100495.42;108931;1262;61997;-75
2023/02/05 08:34:47;;;;;;;8.50;6.90;;;;;;;-1.74;99.72;100501.08;108985;1260;61139;-75
2023/02/05 08:37:19;;;;;;;10.60;8.00;;;;;;;-1.68;99.65;100501.86;108853;1261;76211;-74
2023/02/05 08:39:53;;;;;;;15.90;8.90;;;;;;;-1.65;99.57;100504.77;108851;1261;67920;-74
2023/02/05 08:42:24;;;;;;;23.00;12.60;;;;;;;-1.62;99.38;100503.95;108902;1261;73817;-77
2023/02/05 08:44:58;;;;;;;11.10;7.10;;;;;;;-1.60;99.46;100511.50;108889;1265;59415;-77
2023/02/05 08:47:32;;;;;;;11.40;8.10;;;;;;;-1.59;99.34;100512.99;108884;1261;60115;-74
2023/02/05 08:50:06;;;;;;;13.00;8.50;;;;;;;-1.55;99.41;100516.08;108830;1261;74972;-73
2023/02/05 08:52:37;;;;;;;7.60;6.80;;;;;;;-1.52;99.31;100510.64;108870;1260;68836;-74
2023/02/05 08:55:08;;;;;;;10.90;8.20;;;;;;;-1.45;99.25;100514.22;108889;1261;72013;-76
2023/02/05 08:57:40;;;;;;;12.70;9.20;;;;;;;-1.39;99.21;100517.58;108879;1261;59280;-75
2023/02/05 09:00:12;;;;;;;13.40;9.80;;;;;;;-1.37;98.92;100515.86;108924;1260;60997;-76
2023/02/05 09:02:44;;;;;;;9.50;8.30;;;;;;;-1.36;98.98;100516.11;108868;1263;72927;-73
2023/02/05 09:05:15;;;;;;;9.40;8.10;;;;;;;-1.32;98.80;100516.73;108923;1261;66922;-75
2023/02/05 09:07:51;;;;;;;8.70;7.80;;;;;;;-1.33;98.51;100520.83;108922;1260;73693;-80
2023/02/05 09:10:35;;;;;;;10.10;7.90;;;;;;;-1.27;98.98;100526.14;108863;1262;60233;-74
2023/02/05 09:13:11;;;;;;;9.40;7.50;;;;;;;-1.28;99.47;100526.20;108921;1261;60093;-75
2023/02/05 09:15:45;;;;;;;9.70;8.10;;;;;;;-1.30;99.31;100527.45;108872;1260;72664;-72
2023/02/05 09:18:21;;;;;;;9.70;5.80;;;;;;;-1.33;99.38;100530.02;108921;1261;67939;-78
2023/02/05 09:20:59;;;;;;;6.30;5.70;;;;;;;-1.44;98.79;100525.82;108904;1261;73900;-78
2023/02/05 09:23:50;;;;;;;6.30;5.50;;;;;;;-1.49;98.77;100531.14;108827;1262;62289;-76
2023/02/05 09:26:24;;;;;;;8.60;7.40;;;;;;;-1.48;98.95;100529.95;108919;1260;59961;-77
2023/02/05 09:28:56;;;;;;;7.50;6.80;;;;;;;-1.46;98.56;100529.95;108733;1261;73891;-77
2023/02/05 09:31:35;;;;;;;6.80;6.10;;;;;;;-1.44;98.51;100531.34;108881;1260;68358;-79
2023/02/05 09:34:09;;;;;;;6.80;5.20;;;;;;;-1.38;98.38;100532.05;108746;1263;71429;-76
2023/02/05 09:45:38;;;;;;;7.30;6.60;;;;;;;-1.53;98.99;100526.98;102479;1295;600979;-77
2023/02/05 09:48:40;;;;;;;7.20;6.40;;;;;;;-1.47;99.54;100525.98;104858;1269;63025;-77
2023/02/05 09:54:53;;;;;;;8.50;5.90;;;;;;;-1.31;99.57;100516.52;105207;1263;70915;-76
2023/02/05 09:57:36;;;;;;;9.00;7.20;;;;;;;-1.22;99.43;100517.65;104290;1269;665234;-78
2023/02/05 10:00:17;;;;;;;7.90;6.90;;;;;;;-1.18;99.18;100519.05;105243;1260;71531;-80
2023/02/05 10:03:14;;;;;;;7.20;6.50;;;;;;;-1.17;98.84;100517.13;105740;1260;60727;-78
2023/02/05 10:06:15;;;;;;;7.40;5.20;;;;;;;-1.14;99.00;100517.27;105277;1266;61805;-75
2023/02/05 10:08:57;;;;;;;7.70;6.60;;;;;;;-1.13;98.85;100522.20;105529;1261;72166;-74
2023/02/05 10:11:48;;;;;;;7.20;6.30;;;;;;;-1.10;98.49;100527.02;105436;1265;67683;-74
2023/02/05 10:14:39;;;;;;;8.10;7.10;;;;;;;-1.07;98.36;100519.66;105550;1260;73371;-76
2023/02/05 10:17:07;;;;;;;10.60;6.30;;;;;;;-1.02;98.18;100529.34;105561;1260;60373;-74
2023/02/05 10:19:54;;;;;;;8.20;6.20;;;;;;;-0.97;98.30;100527.26;105556;1260;60993;-75
2023/02/05 10:22:26;;;;;;;9.30;7.90;;;;;;;-0.89;98.52;100536.13;105421;1264;74224;-73
2023/02/05 10:25:04;;;;;;;8.50;6.90;;;;;;;-0.83;98.26;100539.25;105453;1264;67399;-73
2023/02/05 10:27:48;;;;;;;6.30;5.50;;;;;;;-0.79;97.78;100539.12;105539;1260;74552;-75
2023/02/05 10:30:29;;;;;;;10.00;7.50;;;;;;;-0.76;97.04;100545.86;105392;1264;60540;-74
2023/02/05 10:33:00;;;;;;;8.50;6.60;;;;;;;-0.80;95.82;100548.29;105415;1260;61065;-74
2023/02/05 10:35:47;;;;;;;8.70;7.00;;;;;;;-0.85;95.63;100547.92;105365;1266;74759;-73
2023/02/05 10:38:23;;;;;;;8.20;6.40;;;;;;;-0.94;95.51;100551.89;105322;1263;69387;-73
2023/02/05 10:40:54;;;;;;;7.80;6.40;;;;;;;-0.94;95.40;100551.95;105308;1268;71508;-72
2023/02/05 10:43:28;;;;;;;7.70;6.90;;;;;;;-0.88;95.97;100558.36;105237;1263;60955;-73
2023/02/05 10:45:56;;;;;;;8.60;7.90;;;;;;;-0.77;95.99;100560.75;105621;1262;59711;-76
2023/02/05 10:48:36;;;;;;;10.20;7.30;;;;;;;-0.68;95.88;100562.52;105715;1262;73210;-75
2023/02/05 10:51:53;;;;;;;9.20;7.40;;;;;;;-0.66;95.21;100557.54;105716;1257;69776;-76
2023/02/05 10:54:30;;;;;;;7.40;6.60;;;;;;;-0.65;95.24;100568.05;105108;1265;74978;-74
2023/02/05 10:56:58;;;;;;;9.50;8.00;;;;;;;-0.64;94.80;100568.40;105521;1262;60632;-74
2023/02/05 10:59:28;;;;;;;7.50;6.30;;;;;;;-0.64;94.66;100568.39;105885;1257;61465;-73
2023/02/05 11:02:11;;;;;;;8.00;7.20;;;;;;;-0.64;94.23;100568.23;105748;1262;74138;-74
2023/02/05 11:05:45;;;;;;;7.80;6.70;;;;;;;-0.62;94.23;100569.45;104819;1259;1003735;-74
2023/02/05 11:08:33;;;;;;;6.20;5.60;;;;;;;-0.61;94.04;100570.36;105613;1256;72838;-76
2023/02/05 11:11:11;;;;;;;;;;;;;;;-0.62;93.91;100574.92;105870;1258;59638;-80
2023/02/05 11:13:55;;;;;;;10.50;7.40;;;;;;;-0.65;93.83;100576.25;105908;1262;61533;-79
2023/02/05 11:16:35;;;;;;;8.30;7.10;;;;;;;-0.65;94.10;100584.36;105720;1261;73816;-73
2023/02/05 11:19:03;;;;;;;6.90;6.20;;;;;;;-0.63;94.29;100581.04;105856;1259;67940;-74
2023/02/05 11:21:55;;;;;;;9.50;8.50;;;;;;;-0.60;94.40;100578.73;105685;1257;73437;-77
2023/02/05 11:24:39;;;;;;;11.30;8.40;;;;;;;-0.57;94.43;100581.08;105710;1261;59661;-79
2023/02/05 11:27:14;;;;;;;8.20;6.50;;;;;;;-0.55;94.42;100579.12;105663;1258;61228;-80
2023/02/05 11:29:42;;;;;;;8.20;6.50;;;;;;;-0.52;94.34;100577.55;105705;1257;71601;-79
2023/02/05 11:32:28;;;;;;;8.80;7.90;;;;;;;-0.49;94.26;100583.61;105741;1256;67603;-76
2023/02/05 11:35:08;;;;;;;9.60;7.50;;;;;;;-0.52;94.07;100580.67;105651;1260;72858;-75
2023/02/05 11:37:39;;;;;;;11.30;7.70;;;;;;;-0.55;94.09;100582.08;105698;1259;62993;-74
2023/02/05 11:40:37;;;;;;;8.80;7.10;;;;;;;-0.58;94.19;100581.08;105724;1256;61144;-80
2023/02/05 11:43:16;;;;;;;8.50;7.70;;;;;;;-0.63;94.82;100586.80;105754;1257;74532;-74
2023/02/05 11:45:49;;;;;;;9.50;7.10;;;;;;;-0.61;95.16;100585.84;105772;1257;69078;-75
2023/02/05 11:48:34;;;;;;;10.20;8.90;;;;;;;-0.57;95.00;100588.17;105667;1257;72634;-78
2023/02/05 11:51:03;;;;;;;9.00;7.40;;;;;;;-0.55;95.06;100588.63;105662;1257;61857;-75
2023/02/05 11:53:32;;;;;;;10.00;7.50;;;;;;;-0.53;95.08;100588.91;105797;1257;61017;-77
2023/02/05 11:56:11;;;;;;;12.70;9.40;;;;;;;-0.50;96.30;100589.11;105590;1262;74875;-74
2023/02/05 11:58:39;;;;;;;13.10;8.80;;;;;;;-0.41;97.03;100590.95;105549;1261;67988;-72
2023/02/05 12:01:22;;;;;;;7.90;7.00;;;;;;;-0.37;96.25;100599.09;105552;1262;74472;-79